METAR Data
IDs: Format: Raw Decoded Include TAF

Data at: 1642 UTC 03 Dec 2021

KSLE 031556Z 36003KT 10SM CLR 03/01 A3025 RMK AO2 SLP244 T00280006
KSLE 031456Z 00000KT 10SM CLR 03/01 A3026 RMK AO2 SLP248 T00280006 56008
KSLE 031356Z AUTO 33004KT 10SM CLR 03/01 A3027 RMK AO2 SLP253 T00330006
KSLE 031256Z AUTO 33004KT 10SM CLR 04/01 A3027 RMK AO2 SLP251 T00390011
KSLE 031156Z AUTO 35004KT 10SM CLR 04/01 A3028 RMK AO2 SLP256 T00390011 10072 20039 56006
KSLE 031056Z AUTO 33005KT 10SM CLR 04/01 A3029 RMK AO2 SLP258 T00440011
KSLE 030956Z AUTO 35004KT 10SM CLR 05/01 A3029 RMK AO2 SLP258 T00500011
KSLE 030856Z AUTO 02006KT 10SM CLR 07/02 A3030 RMK AO2 SLP262 T00670022 58005
KSLE 030756Z AUTO 35006KT 10SM CLR 06/02 A3031 RMK AO2 SLP265 T00560022 401390056
KSLE 030656Z AUTO 36007KT 10SM CLR 07/02 A3032 RMK AO2 SLP267 T00670022
KSLE 030556Z AUTO 01006KT 10SM CLR 07/03 A3032 RMK AO2 SLP267 T00720028 10122 20072 51004
KSLE 030456Z AUTO 02008KT 10SM CLR 08/03 A3032 RMK AO2 SLP267 T00830033
KSLE 030356Z 36010KT 10SM CLR 09/04 A3031 RMK AO2 SLP266 T00890039
KSLE 030256Z 01007KT 10SM BKN037 09/04 A3031 RMK AO2 SLP263 T00940039 53004
KSLE 030156Z 01007KT 10SM OVC031 11/05 A3030 RMK AO2 SLP261 T01060050
KSLE 030056Z 02009KT 10SM BKN025 BKN031 BKN044 11/04 A3030 RMK AO2 SLP260 T01060039
KSLE 030025Z 02009KT 10SM OVC028 11/05 A3030 RMK AO2 T01110050
KSLE 022356Z 03008KT 10SM SCT031 OVC041 12/07 A3029 RMK AO2 SLP258 T01220067 10139 20117 53000
KSLE 022344Z 02005KT 10SM SCT029 OVC044 12/07 A3029 RMK AO2 T01220067
KSLE 022307Z 03006KT 10SM BKN028 OVC035 13/07 A3028 RMK AO2 T01330067
KSLE 022256Z 02006KT 10SM BKN030 OVC045 13/07 A3028 RMK AO2 SLP253 T01330067
KSLE 022156Z 34007KT 10SM BKN045 13/06 A3029 RMK AO2 SLP257 T01280061
KSLE 022056Z 34005KT 10SM OVC036 13/07 A3029 RMK AO2 SLP257 T01330067 56005
KSLE 021956Z 33007KT 10SM SCT028 BKN036 13/07 A3029 RMK AO2 SLP258 T01330067
KSLE 021856Z 00000KT 10SM SCT023 BKN037 12/07 A3030 RMK AO2 SLP261 T01220072
KSLE 021756Z 29004KT 10SM OVC031 12/08 A3031 RMK AO2 SLP262 T01220078 10122 20100 51020
KSLE 021656Z 00000KT 10SM OVC031 11/07 A3029 RMK AO2 SLP258 T01110072
KSLE 021642Z 32004KT 10SM OVC030 11/07 A3028 RMK AO2 T01110072
KSLE 021556Z 29006KT 10SM OVC025 11/08 A3026 RMK AO2 SLP249 T01110078
KSLE 021456Z 29006KT 10SM BKN024 OVC030 11/08 A3025 RMK AO2 SLP243 T01110083 53011
KSLE 021356Z AUTO 00000KT 10SM OVC021 11/09 A3023 RMK AO2 SLP237 T01110089
KSLE 021323Z AUTO 00000KT 10SM BKN019 BKN060 11/09 A3023 RMK AO2 T01110089
KSLE 021256Z AUTO 00000KT 10SM SCT031 OVC055 12/09 A3023 RMK AO2 SLP235 T01170094
KSLE 021217Z AUTO 00000KT 10SM FEW017 OVC031 12/09 A3022 RMK AO2 T01170094
KSLE 021156Z AUTO 00000KT 10SM BKN017 OVC032 11/09 A3021 RMK AO2 SLP231 T01110094 10128 20089 51001
KSLE 021151Z AUTO 00000KT 10SM BKN017 OVC032 11/09 A3021 RMK AO2
KSLE 021137Z AUTO 00000KT 10SM SCT017 OVC032 11/09 A3021 RMK AO2 T01110094
KSLE 021056Z AUTO 00000KT 10SM OVC015 11/09 A3021 RMK AO2 SLP231 T01060094
KSLE 021015Z AUTO 00000KT 10SM BKN016 OVC035 12/09 A3021 RMK AO2 T01170094
KSLE 020956Z AUTO 00000KT 10SM BKN035 11/09 A3021 RMK AO2 SLP230 T01110094
KSLE 020856Z AUTO 35004KT 10SM OVC085 12/09 A3021 RMK AO2 SLP231 T01220094 51015
KSLE 020756Z AUTO 31003KT 10SM OVC080 11/09 A3020 RMK AO2 SLP228 T01110089 401830061
KSLE 020656Z AUTO 00000KT 10SM BKN080 11/08 A3018 RMK AO2 SLP220 T01060078
KSLE 020556Z AUTO 25003KT 10SM OVC090 11/09 A3017 RMK AO2 SLP217 T01110094 10161 20100 51007
KSLE 020456Z AUTO 00000KT 10SM BKN090 11/09 A3017 RMK AO2 SLP215 T01060094